sensor_id;sensor_type;location;lat;lon;timestamp;P1;durP1;ratioP1;P2;durP2;ratioP2
67889;SDS011;54685;52.082;5.426;2023-11-19T00:00:10;17.80;;;6.05;;
67889;SDS011;54685;52.082;5.426;2023-11-19T00:02:40;15.20;;;5.93;;
67889;SDS011;54685;52.082;5.426;2023-11-19T00:05:08;20.35;;;5.40;;
67889;SDS011;54685;52.082;5.426;2023-11-19T00:07:36;14.57;;;4.60;;
67889;SDS011;54685;52.082;5.426;2023-11-19T00:10:11;16.73;;;5.35;;
67889;SDS011;54685;52.082;5.426;2023-11-19T00:12:44;16.70;;;5.00;;
67889;SDS011;54685;52.082;5.426;2023-11-19T00:15:13;20.05;;;4.60;;
67889;SDS011;54685;52.082;5.426;2023-11-19T00:17:41;19.90;;;5.13;;
67889;SDS011;54685;52.082;5.426;2023-11-19T00:20:19;22.55;;;5.60;;
67889;SDS011;54685;52.082;5.426;2023-11-19T00:22:48;12.90;;;4.07;;
67889;SDS011;54685;52.082;5.426;2023-11-19T00:25:19;21.77;;;5.20;;
67889;SDS011;54685;52.082;5.426;2023-11-19T00:27:48;28.38;;;5.05;;
67889;SDS011;54685;52.082;5.426;2023-11-19T00:30:15;17.38;;;4.43;;
67889;SDS011;54685;52.082;5.426;2023-11-19T00:32:43;20.77;;;4.32;;
67889;SDS011;54685;52.082;5.426;2023-11-19T00:35:10;21.17;;;4.70;;
67889;SDS011;54685;52.082;5.426;2023-11-19T00:37:37;22.10;;;4.63;;
67889;SDS011;54685;52.082;5.426;2023-11-19T00:40:04;24.50;;;3.45;;
67889;SDS011;54685;52.082;5.426;2023-11-19T00:42:32;28.60;;;4.40;;
67889;SDS011;54685;52.082;5.426;2023-11-19T00:44:59;20.52;;;4.75;;
67889;SDS011;54685;52.082;5.426;2023-11-19T00:47:28;18.42;;;4.47;;
67889;SDS011;54685;52.082;5.426;2023-11-19T00:49:57;23.67;;;4.32;;
67889;SDS011;54685;52.082;5.426;2023-11-19T00:52:24;28.58;;;4.32;;
67889;SDS011;54685;52.082;5.426;2023-11-19T00:54:52;24.58;;;4.43;;
67889;SDS011;54685;52.082;5.426;2023-11-19T00:57:20;22.05;;;4.28;;
67889;SDS011;54685;52.082;5.426;2023-11-19T00:59:47;25.27;;;4.15;;
67889;SDS011;54685;52.082;5.426;2023-11-19T01:02:14;23.85;;;3.75;;
67889;SDS011;54685;52.082;5.426;2023-11-19T01:04:41;32.60;;;4.55;;
67889;SDS011;54685;52.082;5.426;2023-11-19T01:07:08;26.38;;;4.28;;
67889;SDS011;54685;52.082;5.426;2023-11-19T01:09:41;29.05;;;5.25;;
67889;SDS011;54685;52.082;5.426;2023-11-19T01:12:09;20.08;;;3.60;;
67889;SDS011;54685;52.082;5.426;2023-11-19T01:14:37;25.33;;;4.65;;
67889;SDS011;54685;52.082;5.426;2023-11-19T01:17:05;39.60;;;5.45;;
67889;SDS011;54685;52.082;5.426;2023-11-19T01:19:36;38.88;;;5.45;;
67889;SDS011;54685;52.082;5.426;2023-11-19T01:22:03;30.75;;;4.72;;
67889;SDS011;54685;52.082;5.426;2023-11-19T01:24:30;24.60;;;4.60;;
67889;SDS011;54685;52.082;5.426;2023-11-19T01:26:57;33.83;;;4.75;;
67889;SDS011;54685;52.082;5.426;2023-11-19T01:29:26;34.42;;;5.03;;
67889;SDS011;54685;52.082;5.426;2023-11-19T01:31:55;29.15;;;4.65;;
67889;SDS011;54685;52.082;5.426;2023-11-19T01:34:22;25.40;;;4.45;;
67889;SDS011;54685;52.082;5.426;2023-11-19T01:36:49;35.30;;;5.00;;
67889;SDS011;54685;52.082;5.426;2023-11-19T01:39:17;35.20;;;5.10;;
67889;SDS011;54685;52.082;5.426;2023-11-19T01:41:46;40.75;;;6.05;;
67889;SDS011;54685;52.082;5.426;2023-11-19T01:44:13;35.75;;;5.25;;
67889;SDS011;54685;52.082;5.426;2023-11-19T01:46:40;31.42;;;4.93;;
67889;SDS011;54685;52.082;5.426;2023-11-19T01:49:10;40.80;;;5.75;;
67889;SDS011;54685;52.082;5.426;2023-11-19T01:51:43;33.38;;;5.70;;
67889;SDS011;54685;52.082;5.426;2023-11-19T01:54:10;32.10;;;5.32;;
67889;SDS011;54685;52.082;5.426;2023-11-19T01:56:38;52.03;;;6.15;;
67889;SDS011;54685;52.082;5.426;2023-11-19T01:59:07;33.72;;;5.00;;
67889;SDS011;54685;52.082;5.426;2023-11-19T02:01:36;36.47;;;5.63;;
67889;SDS011;54685;52.082;5.426;2023-11-19T02:04:07;30.90;;;4.40;;
67889;SDS011;54685;52.082;5.426;2023-11-19T02:06:39;40.60;;;5.55;;
67889;SDS011;54685;52.082;5.426;2023-11-19T02:09:08;35.53;;;6.38;;
67889;SDS011;54685;52.082;5.426;2023-11-19T02:11:36;46.88;;;6.72;;
67889;SDS011;54685;52.082;5.426;2023-11-19T02:14:06;39.88;;;5.82;;
67889;SDS011;54685;52.082;5.426;2023-11-19T02:16:33;38.38;;;5.50;;
67889;SDS011;54685;52.082;5.426;2023-11-19T02:19:01;45.90;;;6.35;;
67889;SDS011;54685;52.082;5.426;2023-11-19T02:21:28;41.55;;;6.45;;
67889;SDS011;54685;52.082;5.426;2023-11-19T02:23:56;44.55;;;6.25;;
67889;SDS011;54685;52.082;5.426;2023-11-19T02:26:46;40.30;;;6.50;;
67889;SDS011;54685;52.082;5.426;2023-11-19T02:29:18;38.08;;;5.55;;
67889;SDS011;54685;52.082;5.426;2023-11-19T02:31:45;33.47;;;5.90;;
67889;SDS011;54685;52.082;5.426;2023-11-19T02:34:13;41.53;;;5.55;;
67889;SDS011;54685;52.082;5.426;2023-11-19T02:36:41;37.53;;;5.90;;
67889;SDS011;54685;52.082;5.426;2023-11-19T02:39:08;42.97;;;6.10;;
67889;SDS011;54685;52.082;5.426;2023-11-19T02:41:38;38.75;;;5.75;;
67889;SDS011;54685;52.082;5.426;2023-11-19T02:44:06;45.67;;;6.28;;
67889;SDS011;54685;52.082;5.426;2023-11-19T02:46:33;44.67;;;7.85;;
67889;SDS011;54685;52.082;5.426;2023-11-19T02:49:03;36.88;;;5.53;;
67889;SDS011;54685;52.082;5.426;2023-11-19T02:51:30;50.08;;;6.93;;
67889;SDS011;54685;52.082;5.426;2023-11-19T02:53:57;51.15;;;7.53;;
67889;SDS011;54685;52.082;5.426;2023-11-19T02:56:24;54.15;;;7.32;;
67889;SDS011;54685;52.082;5.426;2023-11-19T02:58:53;47.13;;;7.93;;
67889;SDS011;54685;52.082;5.426;2023-11-19T03:01:22;42.42;;;6.75;;
67889;SDS011;54685;52.082;5.426;2023-11-19T03:04:01;59.30;;;8.02;;
67889;SDS011;54685;52.082;5.426;2023-11-19T03:06:29;47.63;;;6.57;;
67889;SDS011;54685;52.082;5.426;2023-11-19T03:08:57;43.55;;;6.18;;
67889;SDS011;54685;52.082;5.426;2023-11-19T03:11:25;47.97;;;6.22;;
67889;SDS011;54685;52.082;5.426;2023-11-19T03:13:53;41.17;;;6.35;;
67889;SDS011;54685;52.082;5.426;2023-11-19T03:16:20;47.25;;;6.32;;
67889;SDS011;54685;52.082;5.426;2023-11-19T03:18:47;58.55;;;8.15;;
67889;SDS011;54685;52.082;5.426;2023-11-19T03:21:15;51.72;;;6.45;;
67889;SDS011;54685;52.082;5.426;2023-11-19T03:23:42;50.90;;;8.32;;
67889;SDS011;54685;52.082;5.426;2023-11-19T03:26:12;55.65;;;7.97;;
67889;SDS011;54685;52.082;5.426;2023-11-19T03:28:39;48.13;;;6.68;;
67889;SDS011;54685;52.082;5.426;2023-11-19T03:31:06;46.72;;;6.68;;
67889;SDS011;54685;52.082;5.426;2023-11-19T03:33:36;50.95;;;7.65;;
67889;SDS011;54685;52.082;5.426;2023-11-19T03:36:04;66.13;;;8.63;;
67889;SDS011;54685;52.082;5.426;2023-11-19T03:38:32;58.42;;;7.70;;
67889;SDS011;54685;52.082;5.426;2023-11-19T03:40:59;41.03;;;6.75;;
67889;SDS011;54685;52.082;5.426;2023-11-19T03:43:26;56.92;;;8.18;;
67889;SDS011;54685;52.082;5.426;2023-11-19T03:45:54;51.60;;;7.43;;
67889;SDS011;54685;52.082;5.426;2023-11-19T03:48:21;54.30;;;7.00;;
67889;SDS011;54685;52.082;5.426;2023-11-19T03:50:48;55.33;;;8.05;;
67889;SDS011;54685;52.082;5.426;2023-11-19T03:53:16;49.35;;;7.15;;
67889;SDS011;54685;52.082;5.426;2023-11-19T03:55:43;44.85;;;7.40;;
67889;SDS011;54685;52.082;5.426;2023-11-19T03:58:10;55.75;;;8.07;;
67889;SDS011;54685;52.082;5.426;2023-11-19T04:00:42;53.33;;;7.28;;
67889;SDS011;54685;52.082;5.426;2023-11-19T04:03:09;55.33;;;7.30;;
67889;SDS011;54685;52.082;5.426;2023-11-19T04:05:36;46.75;;;5.88;;
67889;SDS011;54685;52.082;5.426;2023-11-19T04:08:03;57.80;;;7.80;;
67889;SDS011;54685;52.082;5.426;2023-11-19T04:10:31;46.45;;;6.90;;
67889;SDS011;54685;52.082;5.426;2023-11-19T04:12:58;57.53;;;8.00;;
67889;SDS011;54685;52.082;5.426;2023-11-19T04:15:25;52.70;;;7.05;;
67889;SDS011;54685;52.082;5.426;2023-11-19T04:17:52;40.08;;;5.75;;
67889;SDS011;54685;52.082;5.426;2023-11-19T04:20:20;44.45;;;6.72;;
67889;SDS011;54685;52.082;5.426;2023-11-19T04:22:47;55.55;;;7.13;;
67889;SDS011;54685;52.082;5.426;2023-11-19T04:25:17;56.58;;;7.82;;
67889;SDS011;54685;52.082;5.426;2023-11-19T04:27:45;55.67;;;6.75;;
67889;SDS011;54685;52.082;5.426;2023-11-19T04:30:14;53.13;;;8.25;;
67889;SDS011;54685;52.082;5.426;2023-11-19T04:32:42;56.17;;;7.22;;
67889;SDS011;54685;52.082;5.426;2023-11-19T04:35:08;49.38;;;7.10;;
67889;SDS011;54685;52.082;5.426;2023-11-19T04:37:36;52.03;;;6.97;;
67889;SDS011;54685;52.082;5.426;2023-11-19T04:40:04;50.97;;;6.50;;
67889;SDS011;54685;52.082;5.426;2023-11-19T04:42:31;55.60;;;7.70;;
67889;SDS011;54685;52.082;5.426;2023-11-19T04:44:58;45.85;;;6.05;;
67889;SDS011;54685;52.082;5.426;2023-11-19T04:47:25;52.95;;;6.88;;
67889;SDS011;54685;52.082;5.426;2023-11-19T04:49:52;45.08;;;6.07;;
67889;SDS011;54685;52.082;5.426;2023-11-19T04:52:19;41.92;;;6.82;;
67889;SDS011;54685;52.082;5.426;2023-11-19T04:54:46;42.05;;;7.47;;
67889;SDS011;54685;52.082;5.426;2023-11-19T04:57:14;46.70;;;6.85;;
67889;SDS011;54685;52.082;5.426;2023-11-19T04:59:41;53.92;;;7.55;;
67889;SDS011;54685;52.082;5.426;2023-11-19T05:02:08;47.38;;;7.28;;
67889;SDS011;54685;52.082;5.426;2023-11-19T05:04:36;50.28;;;7.47;;
67889;SDS011;54685;52.082;5.426;2023-11-19T05:07:06;50.67;;;6.82;;
67889;SDS011;54685;52.082;5.426;2023-11-19T05:09:33;54.33;;;8.02;;
67889;SDS011;54685;52.082;5.426;2023-11-19T05:12:02;56.17;;;7.15;;
67889;SDS011;54685;52.082;5.426;2023-11-19T05:14:29;47.97;;;7.57;;
67889;SDS011;54685;52.082;5.426;2023-11-19T05:16:56;54.45;;;7.65;;
67889;SDS011;54685;52.082;5.426;2023-11-19T05:19:23;51.70;;;6.72;;
67889;SDS011;54685;52.082;5.426;2023-11-19T05:21:50;46.65;;;7.38;;
67889;SDS011;54685;52.082;5.426;2023-11-19T05:24:20;53.30;;;7.40;;
67889;SDS011;54685;52.082;5.426;2023-11-19T05:26:47;44.97;;;7.88;;
67889;SDS011;54685;52.082;5.426;2023-11-19T05:29:14;47.60;;;7.15;;
67889;SDS011;54685;52.082;5.426;2023-11-19T05:31:41;47.47;;;6.88;;
67889;SDS011;54685;52.082;5.426;2023-11-19T05:34:10;49.83;;;6.43;;
67889;SDS011;54685;52.082;5.426;2023-11-19T05:36:38;52.30;;;7.10;;
67889;SDS011;54685;52.082;5.426;2023-11-19T05:39:06;50.30;;;7.70;;
67889;SDS011;54685;52.082;5.426;2023-11-19T05:41:33;49.10;;;7.55;;
67889;SDS011;54685;52.082;5.426;2023-11-19T05:44:00;48.53;;;7.18;;
67889;SDS011;54685;52.082;5.426;2023-11-19T05:46:27;50.17;;;7.53;;
67889;SDS011;54685;52.082;5.426;2023-11-19T05:48:54;49.38;;;7.18;;
67889;SDS011;54685;52.082;5.426;2023-11-19T05:51:21;46.88;;;6.88;;
67889;SDS011;54685;52.082;5.426;2023-11-19T05:53:50;45.42;;;7.47;;
67889;SDS011;54685;52.082;5.426;2023-11-19T05:56:17;45.55;;;6.93;;
67889;SDS011;54685;52.082;5.426;2023-11-19T05:58:48;39.88;;;6.68;;
67889;SDS011;54685;52.082;5.426;2023-11-19T06:01:18;59.65;;;8.10;;
67889;SDS011;54685;52.082;5.426;2023-11-19T06:03:45;58.35;;;8.65;;
67889;SDS011;54685;52.082;5.426;2023-11-19T06:06:17;46.35;;;6.53;;
67889;SDS011;54685;52.082;5.426;2023-11-19T06:08:44;50.90;;;7.65;;
67889;SDS011;54685;52.082;5.426;2023-11-19T06:11:11;54.03;;;7.07;;
67889;SDS011;54685;52.082;5.426;2023-11-19T06:13:41;54.70;;;7.45;;
67889;SDS011;54685;52.082;5.426;2023-11-19T06:16:12;51.90;;;7.82;;
67889;SDS011;54685;52.082;5.426;2023-11-19T06:18:39;57.92;;;8.48;;
67889;SDS011;54685;52.082;5.426;2023-11-19T06:21:08;56.30;;;7.82;;
67889;SDS011;54685;52.082;5.426;2023-11-19T06:23:35;54.50;;;7.10;;
67889;SDS011;54685;52.082;5.426;2023-11-19T06:26:02;49.40;;;7.70;;
67889;SDS011;54685;52.082;5.426;2023-11-19T06:28:28;60.13;;;8.05;;
67889;SDS011;54685;52.082;5.426;2023-11-19T06:30:55;44.25;;;6.30;;
67889;SDS011;54685;52.082;5.426;2023-11-19T06:33:24;57.60;;;7.22;;
67889;SDS011;54685;52.082;5.426;2023-11-19T06:35:51;41.47;;;6.32;;
67889;SDS011;54685;52.082;5.426;2023-11-19T06:38:19;41.83;;;6.38;;
67889;SDS011;54685;52.082;5.426;2023-11-19T06:40:46;56.72;;;7.55;;
67889;SDS011;54685;52.082;5.426;2023-11-19T06:43:16;47.55;;;7.25;;
67889;SDS011;54685;52.082;5.426;2023-11-19T06:45:45;42.60;;;5.78;;
67889;SDS011;54685;52.082;5.426;2023-11-19T06:48:12;50.40;;;7.07;;
67889;SDS011;54685;52.082;5.426;2023-11-19T06:50:38;47.97;;;7.80;;
67889;SDS011;54685;52.082;5.426;2023-11-19T06:53:05;43.67;;;6.45;;
67889;SDS011;54685;52.082;5.426;2023-11-19T06:55:37;54.78;;;7.43;;
67889;SDS011;54685;52.082;5.426;2023-11-19T06:58:05;65.00;;;8.20;;
67889;SDS011;54685;52.082;5.426;2023-11-19T07:00:33;56.65;;;8.23;;
67889;SDS011;54685;52.082;5.426;2023-11-19T07:03:03;53.60;;;7.53;;
67889;SDS011;54685;52.082;5.426;2023-11-19T07:05:30;58.00;;;7.55;;
67889;SDS011;54685;52.082;5.426;2023-11-19T07:07:57;54.55;;;8.48;;
67889;SDS011;54685;52.082;5.426;2023-11-19T07:10:24;52.45;;;7.47;;
67889;SDS011;54685;52.082;5.426;2023-11-19T07:12:56;51.00;;;7.45;;
67889;SDS011;54685;52.082;5.426;2023-11-19T07:15:24;46.47;;;6.75;;
67889;SDS011;54685;52.082;5.426;2023-11-19T07:17:53;50.22;;;7.93;;
67889;SDS011;54685;52.082;5.426;2023-11-19T07:20:23;53.08;;;7.25;;
67889;SDS011;54685;52.082;5.426;2023-11-19T07:22:50;67.88;;;8.38;;
67889;SDS011;54685;52.082;5.426;2023-11-19T07:25:21;61.25;;;8.25;;
67889;SDS011;54685;52.082;5.426;2023-11-19T07:27:48;57.05;;;7.85;;
67889;SDS011;54685;52.082;5.426;2023-11-19T07:30:15;48.80;;;6.97;;
67889;SDS011;54685;52.082;5.426;2023-11-19T07:32:42;56.03;;;8.00;;
67889;SDS011;54685;52.082;5.426;2023-11-19T07:35:09;57.22;;;7.28;;
67889;SDS011;54685;52.082;5.426;2023-11-19T07:37:36;53.95;;;7.82;;
67889;SDS011;54685;52.082;5.426;2023-11-19T07:40:04;48.78;;;6.90;;
67889;SDS011;54685;52.082;5.426;2023-11-19T07:42:31;40.08;;;6.53;;
67889;SDS011;54685;52.082;5.426;2023-11-19T07:44:58;44.65;;;6.07;;
67889;SDS011;54685;52.082;5.426;2023-11-19T07:47:25;59.95;;;7.78;;
67889;SDS011;54685;52.082;5.426;2023-11-19T07:49:55;51.55;;;6.78;;
67889;SDS011;54685;52.082;5.426;2023-11-19T07:52:25;48.63;;;7.45;;
67889;SDS011;54685;52.082;5.426;2023-11-19T07:54:52;51.20;;;7.97;;
67889;SDS011;54685;52.082;5.426;2023-11-19T07:57:19;43.92;;;6.93;;
67889;SDS011;54685;52.082;5.426;2023-11-19T07:59:47;60.65;;;7.65;;
67889;SDS011;54685;52.082;5.426;2023-11-19T08:02:14;51.28;;;7.38;;
67889;SDS011;54685;52.082;5.426;2023-11-19T08:04:41;52.17;;;7.07;;
67889;SDS011;54685;52.082;5.426;2023-11-19T08:07:11;64.90;;;8.88;;
67889;SDS011;54685;52.082;5.426;2023-11-19T08:09:38;60.05;;;9.23;;
67889;SDS011;54685;52.082;5.426;2023-11-19T08:12:07;55.13;;;8.13;;
67889;SDS011;54685;52.082;5.426;2023-11-19T08:14:35;52.72;;;7.40;;
67889;SDS011;54685;52.082;5.426;2023-11-19T08:17:05;55.13;;;7.15;;
67889;SDS011;54685;52.082;5.426;2023-11-19T08:19:33;53.45;;;7.32;;
67889;SDS011;54685;52.082;5.426;2023-11-19T08:22:02;51.33;;;7.32;;
67889;SDS011;54685;52.082;5.426;2023-11-19T08:24:29;48.08;;;6.35;;
67889;SDS011;54685;52.082;5.426;2023-11-19T08:26:56;46.60;;;6.95;;
67889;SDS011;54685;52.082;5.426;2023-11-19T08:29:26;49.70;;;6.70;;
67889;SDS011;54685;52.082;5.426;2023-11-19T08:31:54;47.78;;;7.63;;
67889;SDS011;54685;52.082;5.426;2023-11-19T08:34:21;55.08;;;7.70;;
67889;SDS011;54685;52.082;5.426;2023-11-19T08:36:50;39.65;;;6.15;;
67889;SDS011;54685;52.082;5.426;2023-11-19T08:39:19;47.38;;;6.75;;
67889;SDS011;54685;52.082;5.426;2023-11-19T08:41:49;37.20;;;5.63;;
67889;SDS011;54685;52.082;5.426;2023-11-19T08:44:16;45.50;;;5.90;;
67889;SDS011;54685;52.082;5.426;2023-11-19T08:46:46;44.80;;;6.30;;
67889;SDS011;54685;52.082;5.426;2023-11-19T08:49:16;35.10;;;5.75;;
67889;SDS011;54685;52.082;5.426;2023-11-19T08:51:43;40.33;;;5.93;;
67889;SDS011;54685;52.082;5.426;2023-11-19T08:54:11;43.17;;;6.63;;
67889;SDS011;54685;52.082;5.426;2023-11-19T08:56:39;48.58;;;9.15;;
67889;SDS011;54685;52.082;5.426;2023-11-19T08:59:06;53.15;;;6.97;;
67889;SDS011;54685;52.082;5.426;2023-11-19T09:01:36;45.38;;;8.43;;
67889;SDS011;54685;52.082;5.426;2023-11-19T09:04:03;48.70;;;7.82;;
67889;SDS011;54685;52.082;5.426;2023-11-19T09:06:31;27.27;;;4.90;;
67889;SDS011;54685;52.082;5.426;2023-11-19T09:08:58;48.65;;;7.35;;
67889;SDS011;54685;52.082;5.426;2023-11-19T09:11:29;36.30;;;7.22;;
67889;SDS011;54685;52.082;5.426;2023-11-19T09:13:56;40.65;;;6.30;;
67889;SDS011;54685;52.082;5.426;2023-11-19T09:16:23;40.75;;;6.63;;
67889;SDS011;54685;52.082;5.426;2023-11-19T09:18:50;45.67;;;6.35;;
67889;SDS011;54685;52.082;5.426;2023-11-19T09:21:17;44.08;;;6.82;;
67889;SDS011;54685;52.082;5.426;2023-11-19T09:23:44;35.72;;;5.65;;
67889;SDS011;54685;52.082;5.426;2023-11-19T09:26:11;36.55;;;5.82;;
67889;SDS011;54685;52.082;5.426;2023-11-19T09:28:38;47.08;;;7.75;;
67889;SDS011;54685;52.082;5.426;2023-11-19T09:31:14;41.38;;;6.45;;
67889;SDS011;54685;52.082;5.426;2023-11-19T09:33:41;43.75;;;6.85;;
67889;SDS011;54685;52.082;5.426;2023-11-19T09:36:12;50.70;;;6.75;;
67889;SDS011;54685;52.082;5.426;2023-11-19T09:38:43;35.00;;;6.47;;
67889;SDS011;54685;52.082;5.426;2023-11-19T09:41:10;39.20;;;5.47;;
67889;SDS011;54685;52.082;5.426;2023-11-19T09:43:42;35.35;;;5.55;;
67889;SDS011;54685;52.082;5.426;2023-11-19T09:46:09;40.75;;;6.47;;
67889;SDS011;54685;52.082;5.426;2023-11-19T09:48:40;53.72;;;7.72;;
67889;SDS011;54685;52.082;5.426;2023-11-19T09:51:09;43.92;;;6.35;;
67889;SDS011;54685;52.082;5.426;2023-11-19T09:53:37;38.60;;;6.03;;
67889;SDS011;54685;52.082;5.426;2023-11-19T09:56:04;38.90;;;6.35;;
67889;SDS011;54685;52.082;5.426;2023-11-19T09:58:32;39.25;;;6.75;;
67889;SDS011;54685;52.082;5.426;2023-11-19T10:01:00;45.53;;;7.57;;
67889;SDS011;54685;52.082;5.426;2023-11-19T10:06:06;37.33;;;5.38;;
67889;SDS011;54685;52.082;5.426;2023-11-19T10:08:38;51.35;;;7.43;;
67889;SDS011;54685;52.082;5.426;2023-11-19T10:11:06;43.40;;;6.60;;
67889;SDS011;54685;52.082;5.426;2023-11-19T10:13:37;42.03;;;6.50;;
67889;SDS011;54685;52.082;5.426;2023-11-19T10:16:09;39.95;;;6.32;;
67889;SDS011;54685;52.082;5.426;2023-11-19T10:18:49;39.83;;;6.68;;
67889;SDS011;54685;52.082;5.426;2023-11-19T10:21:19;57.92;;;7.97;;
67889;SDS011;54685;52.082;5.426;2023-11-19T10:23:50;46.42;;;7.00;;
67889;SDS011;54685;52.082;5.426;2023-11-19T10:26:23;33.25;;;4.80;;
67889;SDS011;54685;52.082;5.426;2023-11-19T10:28:50;44.42;;;6.65;;
67889;SDS011;54685;52.082;5.426;2023-11-19T10:31:17;37.80;;;6.60;;
67889;SDS011;54685;52.082;5.426;2023-11-19T10:33:45;37.97;;;6.68;;
67889;SDS011;54685;52.082;5.426;2023-11-19T10:36:13;42.92;;;7.43;;
67889;SDS011;54685;52.082;5.426;2023-11-19T10:38:40;27.60;;;5.07;;
67889;SDS011;54685;52.082;5.426;2023-11-19T10:44:11;43.63;;;6.07;;
67889;SDS011;54685;52.082;5.426;2023-11-19T10:46:39;40.95;;;6.10;;
67889;SDS011;54685;52.082;5.426;2023-11-19T10:49:08;48.10;;;7.38;;
67889;SDS011;54685;52.082;5.426;2023-11-19T10:51:35;39.60;;;6.03;;
67889;SDS011;54685;52.082;5.426;2023-11-19T10:54:04;45.72;;;7.32;;
67889;SDS011;54685;52.082;5.426;2023-11-19T10:56:35;41.65;;;6.15;;
67889;SDS011;54685;52.082;5.426;2023-11-19T10:59:02;39.35;;;6.90;;
67889;SDS011;54685;52.082;5.426;2023-11-19T11:01:48;39.13;;;6.28;;
67889;SDS011;54685;52.082;5.426;2023-11-19T11:04:19;49.85;;;7.47;;
67889;SDS011;54685;52.082;5.426;2023-11-19T11:06:50;38.58;;;6.75;;
67889;SDS011;54685;52.082;5.426;2023-11-19T11:09:25;43.42;;;7.10;;
67889;SDS011;54685;52.082;5.426;2023-11-19T11:11:53;43.47;;;8.13;;
67889;SDS011;54685;52.082;5.426;2023-11-19T11:14:21;38.67;;;6.72;;
67889;SDS011;54685;52.082;5.426;2023-11-19T11:16:50;33.10;;;5.25;;
67889;SDS011;54685;52.082;5.426;2023-11-19T11:19:19;30.83;;;6.25;;
67889;SDS011;54685;52.082;5.426;2023-11-19T11:21:48;31.70;;;5.93;;
67889;SDS011;54685;52.082;5.426;2023-11-19T11:35:46;39.45;;;6.65;;
67889;SDS011;54685;52.082;5.426;2023-11-19T11:38:28;48.25;;;7.38;;
67889;SDS011;54685;52.082;5.426;2023-11-19T11:43:55;43.58;;;6.22;;
67889;SDS011;54685;52.082;5.426;2023-11-19T11:49:05;42.88;;;6.38;;
67889;SDS011;54685;52.082;5.426;2023-11-19T11:57:02;34.50;;;6.13;;
67889;SDS011;54685;52.082;5.426;2023-11-19T12:02:13;37.80;;;5.90;;
67889;SDS011;54685;52.082;5.426;2023-11-19T12:04:43;41.22;;;6.75;;
67889;SDS011;54685;52.082;5.426;2023-11-19T12:09:47;30.48;;;5.15;;
67889;SDS011;54685;52.082;5.426;2023-11-19T12:12:19;29.40;;;5.03;;
67889;SDS011;54685;52.082;5.426;2023-11-19T12:19:59;28.00;;;5.15;;
67889;SDS011;54685;52.082;5.426;2023-11-19T12:22:36;29.30;;;5.10;;
67889;SDS011;54685;52.082;5.426;2023-11-19T12:25:05;31.00;;;5.32;;
67889;SDS011;54685;52.082;5.426;2023-11-19T12:27:33;37.97;;;5.60;;
67889;SDS011;54685;52.082;5.426;2023-11-19T12:30:04;21.50;;;4.38;;
67889;SDS011;54685;52.082;5.426;2023-11-19T12:32:41;25.00;;;4.40;;
67889;SDS011;54685;52.082;5.426;2023-11-19T12:35:09;36.70;;;6.07;;
67889;SDS011;54685;52.082;5.426;2023-11-19T12:37:42;33.67;;;5.47;;
67889;SDS011;54685;52.082;5.426;2023-11-19T12:40:21;26.35;;;4.57;;
67889;SDS011;54685;52.082;5.426;2023-11-19T12:42:48;32.38;;;5.13;;
67889;SDS011;54685;52.082;5.426;2023-11-19T12:45:18;28.70;;;4.80;;
67889;SDS011;54685;52.082;5.426;2023-11-19T12:47:47;38.83;;;5.57;;
67889;SDS011;54685;52.082;5.426;2023-11-19T12:50:16;36.58;;;5.50;;
67889;SDS011;54685;52.082;5.426;2023-11-19T12:52:57;34.75;;;5.93;;
67889;SDS011;54685;52.082;5.426;2023-11-19T12:55:28;32.50;;;5.53;;
67889;SDS011;54685;52.082;5.426;2023-11-19T12:57:57;33.38;;;5.03;;
67889;SDS011;54685;52.082;5.426;2023-11-19T13:00:26;28.08;;;5.43;;
67889;SDS011;54685;52.082;5.426;2023-11-19T13:02:54;24.40;;;4.30;;
67889;SDS011;54685;52.082;5.426;2023-11-19T13:05:28;29.45;;;5.30;;
67889;SDS011;54685;52.082;5.426;2023-11-19T13:08:00;34.65;;;5.32;;
67889;SDS011;54685;52.082;5.426;2023-11-19T13:10:28;30.95;;;6.13;;
67889;SDS011;54685;52.082;5.426;2023-11-19T13:13:08;29.63;;;5.18;;
67889;SDS011;54685;52.082;5.426;2023-11-19T13:15:40;35.67;;;5.93;;
67889;SDS011;54685;52.082;5.426;2023-11-19T13:18:07;27.05;;;5.15;;
67889;SDS011;54685;52.082;5.426;2023-11-19T13:20:34;32.50;;;5.20;;
67889;SDS011;54685;52.082;5.426;2023-11-19T13:23:02;32.35;;;6.10;;
67889;SDS011;54685;52.082;5.426;2023-11-19T13:25:30;39.30;;;6.15;;
67889;SDS011;54685;52.082;5.426;2023-11-19T13:27:57;36.80;;;6.13;;
67889;SDS011;54685;52.082;5.426;2023-11-19T13:30:24;38.83;;;5.55;;
67889;SDS011;54685;52.082;5.426;2023-11-19T13:32:53;41.35;;;6.18;;
67889;SDS011;54685;52.082;5.426;2023-11-19T13:35:24;33.53;;;5.50;;
67889;SDS011;54685;52.082;5.426;2023-11-19T13:37:53;35.30;;;5.63;;
67889;SDS011;54685;52.082;5.426;2023-11-19T13:40:20;43.88;;;6.47;;
67889;SDS011;54685;52.082;5.426;2023-11-19T13:42:48;37.55;;;6.75;;
67889;SDS011;54685;52.082;5.426;2023-11-19T13:45:15;41.50;;;6.70;;
67889;SDS011;54685;52.082;5.426;2023-11-19T13:47:45;32.50;;;5.05;;
67889;SDS011;54685;52.082;5.426;2023-11-19T13:50:16;41.65;;;5.75;;
67889;SDS011;54685;52.082;5.426;2023-11-19T13:52:46;36.40;;;5.82;;
67889;SDS011;54685;52.082;5.426;2023-11-19T13:55:14;32.22;;;5.28;;
67889;SDS011;54685;52.082;5.426;2023-11-19T13:57:42;31.15;;;5.43;;
67889;SDS011;54685;52.082;5.426;2023-11-19T14:00:11;26.33;;;5.10;;
67889;SDS011;54685;52.082;5.426;2023-11-19T14:02:49;33.15;;;5.30;;
67889;SDS011;54685;52.082;5.426;2023-11-19T14:05:17;29.25;;;4.75;;
67889;SDS011;54685;52.082;5.426;2023-11-19T14:08:03;31.80;;;5.45;;
67889;SDS011;54685;52.082;5.426;2023-11-19T14:10:51;34.70;;;5.28;;
67889;SDS011;54685;52.082;5.426;2023-11-19T14:13:18;35.25;;;5.70;;
67889;SDS011;54685;52.082;5.426;2023-11-19T14:15:45;28.35;;;4.60;;
67889;SDS011;54685;52.082;5.426;2023-11-19T14:18:15;33.67;;;5.22;;
67889;SDS011;54685;52.082;5.426;2023-11-19T14:20:43;29.42;;;4.97;;
67889;SDS011;54685;52.082;5.426;2023-11-19T14:23:12;31.30;;;4.68;;
67889;SDS011;54685;52.082;5.426;2023-11-19T14:25:39;29.00;;;4.18;;
67889;SDS011;54685;52.082;5.426;2023-11-19T14:28:06;33.05;;;4.88;;
67889;SDS011;54685;52.082;5.426;2023-11-19T14:30:34;32.58;;;5.38;;
67889;SDS011;54685;52.082;5.426;2023-11-19T14:33:01;37.17;;;5.38;;
67889;SDS011;54685;52.082;5.426;2023-11-19T14:35:29;37.05;;;5.32;;
67889;SDS011;54685;52.082;5.426;2023-11-19T14:37:57;32.58;;;5.95;;
67889;SDS011;54685;52.082;5.426;2023-11-19T14:40:24;40.05;;;5.85;;
67889;SDS011;54685;52.082;5.426;2023-11-19T14:42:54;40.38;;;5.65;;
67889;SDS011;54685;52.082;5.426;2023-11-19T14:45:21;29.08;;;5.28;;
67889;SDS011;54685;52.082;5.426;2023-11-19T14:47:48;24.63;;;4.45;;
67889;SDS011;54685;52.082;5.426;2023-11-19T14:50:16;41.42;;;5.97;;
67889;SDS011;54685;52.082;5.426;2023-11-19T14:52:43;41.88;;;5.40;;
67889;SDS011;54685;52.082;5.426;2023-11-19T14:55:10;36.38;;;5.80;;
67889;SDS011;54685;52.082;5.426;2023-11-19T14:57:38;37.60;;;5.18;;
67889;SDS011;54685;52.082;5.426;2023-11-19T15:00:06;35.20;;;6.18;;
67889;SDS011;54685;52.082;5.426;2023-11-19T15:02:40;34.67;;;5.47;;
67889;SDS011;54685;52.082;5.426;2023-11-19T15:05:08;32.65;;;5.82;;
67889;SDS011;54685;52.082;5.426;2023-11-19T15:07:39;31.75;;;5.80;;
67889;SDS011;54685;52.082;5.426;2023-11-19T15:10:06;38.88;;;5.30;;
67889;SDS011;54685;52.082;5.426;2023-11-19T15:12:37;26.08;;;4.88;;
67889;SDS011;54685;52.082;5.426;2023-11-19T15:15:09;27.80;;;5.40;;
67889;SDS011;54685;52.082;5.426;2023-11-19T15:17:39;34.80;;;4.63;;
67889;SDS011;54685;52.082;5.426;2023-11-19T15:20:06;35.83;;;6.05;;